createdAt,value
2023-03-15T00:08:28.088Z,99.95
2023-03-15T00:23:28.253Z,97.28
2023-03-15T00:38:28.435Z,98.43
2023-03-15T00:53:28.646Z,98.32
2023-03-15T01:08:29.253Z,99.99
2023-03-15T01:23:29.509Z,99.16
2023-03-15T01:38:30.285Z,97.64
2023-03-15T01:53:30.638Z,96.70
2023-03-15T02:08:31.317Z,94.96
2023-03-15T02:23:31.264Z,96.43
2023-03-15T02:38:31.552Z,94.86
2023-03-15T02:53:32.411Z,94.55
2023-03-15T03:08:33.524Z,94.55
2023-03-15T03:23:34.571Z,95.01
2023-03-15T03:38:34.865Z,94.23
2023-03-15T03:53:35.106Z,93.76
2023-03-15T04:08:36.203Z,93.33
2023-03-15T04:23:37.360Z,91.98
2023-03-15T04:38:37.951Z,92.02
2023-03-15T04:53:38.494Z,93.13
2023-03-15T05:08:38.830Z,93.38
2023-03-15T05:23:39.352Z,92.13
2023-03-15T05:38:40.396Z,92.23
2023-03-15T05:53:40.561Z,92.71
2023-03-15T06:08:41.430Z,94.19
2023-03-15T06:23:42.222Z,96.23
2023-03-15T06:38:42.737Z,97.44
2023-03-15T06:53:43.046Z,95.36
2023-03-15T07:08:43.308Z,94.02
2023-03-15T07:23:44.170Z,92.46
2023-03-15T07:38:44.152Z,93.24
2023-03-15T07:53:44.305Z,96.08
2023-03-15T08:08:44.504Z,97.12
2023-03-15T08:23:45.128Z,99.99
2023-03-15T08:38:46.404Z,99.99
2023-03-15T08:53:47.136Z,99.99
2023-03-15T09:08:47.627Z,99.99
2023-03-15T09:23:48.232Z,99.99
2023-03-15T09:38:50.274Z,99.99
2023-03-15T09:53:51.746Z,98.94
2023-03-15T10:08:51.676Z,95.57
2023-03-15T10:23:51.909Z,92.61
2023-03-15T10:38:52.070Z,85.62
2023-03-15T10:53:52.730Z,83.20
2023-03-15T11:08:53.653Z,83.55
2023-03-15T11:23:53.784Z,82.56
2023-03-15T11:38:53.835Z,75.70
2023-03-15T11:53:54.065Z,77.85
2023-03-15T12:08:54.274Z,75.32
2023-03-15T12:23:54.488Z,71.21
2023-03-15T12:38:55.525Z,68.21
2023-03-15T12:53:56.060Z,64.61
2023-03-15T13:08:56.934Z,68.43
2023-03-15T13:23:57.569Z,95.40
2023-03-15T13:38:58.375Z,96.21
2023-03-15T13:53:59.275Z,83.39
2023-03-15T14:08:59.200Z,67.92
2023-03-15T14:24:00.077Z,67.17
2023-03-15T14:39:00.651Z,63.98
2023-03-15T14:54:01.177Z,66.11
2023-03-15T15:09:01.436Z,64.73
2023-03-15T15:24:02.222Z,68.49
2023-03-15T15:39:04.989Z,78.38
2023-03-15T15:54:06.981Z,90.95
2023-03-15T16:09:07.430Z,99.32
2023-03-15T16:24:08.090Z,99.99
2023-03-15T16:39:08.698Z,99.55
2023-03-15T16:54:21.723Z,97.72
2023-03-15T17:09:14.338Z,95.79
2023-03-15T17:24:14.760Z,93.18
2023-03-15T17:39:16.067Z,96.03
2023-03-15T17:54:16.873Z,99.72
2023-03-15T18:09:17.065Z,98.62
2023-03-15T18:24:17.274Z,94.39
2023-03-15T18:39:17.491Z,91.89
2023-03-15T18:54:17.676Z,88.81
2023-03-15T19:09:18.118Z,84.30
2023-03-15T19:24:18.706Z,81.27
2023-03-15T19:39:19.856Z,76.12
2023-03-15T19:54:20.365Z,83.62
2023-03-15T20:09:21.102Z,72.43
2023-03-15T20:24:21.577Z,59.60
2023-03-15T20:39:22.673Z,56.46
2023-03-15T20:54:22.812Z,58.35
2023-03-15T21:09:23.889Z,60.78
2023-03-15T21:24:24.493Z,62.80
2023-03-15T21:39:25.037Z,65.65
2023-03-15T21:54:25.187Z,61.15
2023-03-15T22:09:25.850Z,60.24
2023-03-15T22:24:26.451Z,65.53
2023-03-15T22:39:27.531Z,50.41
2023-03-15T22:54:27.681Z,48.10
2023-03-15T23:09:28.759Z,48.92
2023-03-15T23:24:29.020Z,61.21
2023-03-15T23:39:30.002Z,67.14
2023-03-15T23:54:30.155Z,64.02
